createdAt,value
2019-02-02T00:00:17.490Z,68.09
2019-02-02T00:02:45.919Z,67.38
2019-02-02T00:05:12.498Z,67.39
2019-02-02T00:07:38.820Z,69.16
2019-02-02T00:10:06.707Z,69.20
2019-02-02T00:12:33.083Z,69.38
2019-02-02T00:14:59.655Z,70.97
2019-02-02T00:17:27.296Z,70.78
2019-02-02T00:19:55.805Z,70.64
2019-02-02T00:22:21.849Z,70.30
2019-02-02T00:24:48.428Z,69.82
2019-02-02T00:27:15.108Z,70.18
2019-02-02T00:29:41.727Z,70.60
2019-02-02T00:32:08.040Z,69.56
2019-02-02T00:34:34.353Z,68.87
2019-02-02T00:37:00.679Z,69.77
2019-02-02T00:39:27.108Z,70.36
2019-02-02T00:41:53.439Z,70.07
2019-02-02T00:44:19.767Z,70.51
2019-02-02T00:46:46.098Z,70.77
2019-02-02T00:49:12.452Z,72.11
2019-02-02T00:51:38.776Z,71.67
2019-02-02T00:54:05.388Z,71.41
2019-02-02T00:56:31.992Z,71.57
2019-02-02T00:58:58.318Z,71.73
2019-02-02T01:01:24.825Z,71.18
2019-02-02T01:03:51.242Z,70.51
2019-02-02T01:06:17.788Z,70.86
2019-02-02T01:08:44.111Z,71.06
2019-02-02T01:11:11.261Z,71.52
2019-02-02T01:13:37.581Z,71.17
2019-02-02T01:16:04.588Z,71.00
2019-02-02T01:18:31.146Z,70.96
2019-02-02T01:20:57.473Z,71.41
2019-02-02T01:23:23.803Z,71.27
2019-02-02T01:25:50.127Z,70.05
2019-02-02T01:28:16.471Z,70.24
2019-02-02T01:30:43.086Z,70.50
2019-02-02T01:33:09.663Z,70.80
2019-02-02T01:35:35.980Z,70.34
2019-02-02T01:38:02.497Z,70.35
2019-02-02T01:40:29.079Z,69.88
2019-02-02T01:42:55.755Z,69.15
2019-02-02T01:45:24.728Z,69.46
2019-02-02T01:47:51.625Z,69.52
2019-02-02T01:50:23.985Z,71.22
2019-02-02T01:52:50.380Z,71.16
2019-02-02T01:55:17.294Z,71.28
2019-02-02T01:57:43.937Z,71.10
2019-02-02T02:00:20.790Z,71.56
2019-02-02T02:02:47.081Z,71.12
2019-02-02T02:05:13.744Z,70.76
2019-02-02T02:07:41.827Z,71.28
2019-02-02T02:10:14.905Z,70.56
2019-02-02T02:12:42.307Z,70.69
2019-02-02T02:15:12.521Z,70.99
2019-02-02T02:17:39.028Z,71.06
2019-02-02T02:20:09.163Z,70.78
2019-02-02T02:22:41.198Z,70.30
2019-02-02T02:25:09.558Z,70.60
2019-02-02T02:27:36.159Z,70.50
2019-02-02T02:30:08.801Z,70.07
2019-02-02T02:32:35.320Z,69.92
2019-02-02T02:35:02.788Z,70.30
2019-02-02T02:37:29.209Z,71.33
2019-02-02T02:39:55.548Z,72.03
2019-02-02T02:42:22.155Z,71.95
2019-02-02T02:44:48.537Z,71.90
2019-02-02T02:47:15.899Z,73.43
2019-02-02T02:49:42.263Z,73.49
2019-02-02T02:52:08.853Z,73.24
2019-02-02T02:54:35.197Z,72.01
2019-02-02T02:57:01.628Z,72.01
2019-02-02T02:59:27.947Z,72.25
2019-02-02T03:01:54.536Z,72.68
2019-02-02T03:04:21.165Z,72.08
2019-02-02T03:06:47.959Z,73.04
2019-02-02T03:09:14.543Z,74.05
2019-02-02T03:11:41.147Z,74.58
2019-02-02T03:14:07.878Z,74.73
2019-02-02T03:16:34.266Z,74.99
2019-02-02T03:19:00.908Z,74.92
2019-02-02T03:21:27.252Z,74.89
2019-02-02T03:23:53.545Z,74.24
2019-02-02T03:26:20.138Z,73.59
2019-02-02T03:28:53.505Z,72.97
2019-02-02T03:31:14.661Z,72.78
2019-02-02T03:33:40.964Z,72.52
2019-02-02T03:36:07.278Z,71.63
2019-02-02T03:38:33.874Z,70.29
2019-02-02T03:41:00.165Z,70.48
2019-02-02T03:43:26.496Z,70.73
2019-02-02T03:45:52.957Z,70.23
2019-02-02T03:48:19.269Z,70.37
2019-02-02T03:50:45.617Z,70.00
2019-02-02T03:53:13.616Z,69.73
2019-02-02T03:55:40.440Z,70.82
2019-02-02T03:58:06.743Z,70.86
2019-02-02T04:00:33.113Z,71.19
2019-02-02T04:02:59.403Z,71.65
2019-02-02T04:05:28.503Z,73.09
2019-02-02T04:07:55.037Z,73.24
2019-02-02T04:10:21.602Z,73.20
2019-02-02T04:12:48.185Z,72.50
2019-02-02T04:15:18.607Z,71.95
2019-02-02T04:17:45.243Z,71.98
2019-02-02T04:20:15.457Z,71.31
2019-02-02T04:22:41.883Z,70.48
2019-02-02T04:25:08.860Z,70.42
2019-02-02T04:27:35.178Z,70.08
2019-02-02T04:30:03.480Z,69.08
2019-02-02T04:32:30.308Z,69.30
2019-02-02T04:34:56.868Z,70.34
2019-02-02T04:37:23.473Z,70.37
2019-02-02T04:39:49.771Z,70.37
2019-02-02T04:42:16.402Z,70.34
2019-02-02T04:44:42.730Z,69.95
2019-02-02T04:47:10.061Z,69.53
2019-02-02T04:49:36.362Z,69.65
2019-02-02T04:52:02.826Z,69.85
2019-02-02T04:54:29.150Z,69.42
2019-02-02T04:56:55.892Z,69.50
2019-02-02T04:59:29.015Z,69.13
2019-02-02T05:01:50.432Z,68.74
2019-02-02T05:04:17.094Z,68.51
2019-02-02T05:06:43.410Z,68.59
2019-02-02T05:09:09.715Z,68.70
2019-02-02T05:11:36.054Z,68.92
2019-02-02T05:14:02.967Z,69.37
2019-02-02T05:16:29.293Z,69.57
2019-02-02T05:18:55.621Z,69.06
2019-02-02T05:21:21.930Z,69.03
2019-02-02T05:23:48.263Z,69.62
2019-02-02T05:26:14.581Z,69.95
2019-02-02T05:28:40.910Z,69.90
2019-02-02T05:31:07.470Z,69.58
2019-02-02T05:33:33.968Z,69.45
2019-02-02T05:36:00.589Z,69.15
2019-02-02T05:38:26.926Z,70.80
2019-02-02T05:40:54.478Z,70.81
2019-02-02T05:43:20.917Z,71.14
2019-02-02T05:45:47.443Z,71.11
2019-02-02T05:48:13.795Z,71.47
2019-02-02T05:50:40.112Z,70.90
2019-02-02T05:53:06.734Z,71.05
2019-02-02T05:55:33.308Z,71.07
2019-02-02T05:57:59.798Z,70.52
2019-02-02T06:00:36.888Z,69.88
2019-02-02T06:03:03.720Z,69.39
2019-02-02T06:05:30.039Z,69.86
2019-02-02T06:07:56.352Z,69.25
2019-02-02T06:10:22.966Z,69.54
2019-02-02T06:12:49.536Z,69.40
2019-02-02T06:15:16.179Z,68.90
2019-02-02T06:17:42.460Z,69.36
2019-02-02T06:20:12.686Z,69.25
2019-02-02T06:22:39.052Z,68.74
2019-02-02T06:25:09.636Z,69.18
2019-02-02T06:27:35.992Z,70.83
2019-02-02T06:30:08.260Z,70.59
2019-02-02T06:32:34.610Z,69.73
2019-02-02T06:35:01.227Z,69.41
2019-02-02T06:37:27.946Z,69.39
2019-02-02T06:39:54.505Z,70.18
2019-02-02T06:42:20.813Z,70.80
2019-02-02T06:44:47.119Z,70.60
2019-02-02T06:47:13.448Z,69.92
2019-02-02T06:49:39.782Z,69.25
2019-02-02T06:52:06.332Z,69.75
2019-02-02T06:54:33.915Z,69.10
2019-02-02T06:57:00.392Z,69.38
2019-02-02T06:59:26.993Z,70.50
2019-02-02T07:01:54.613Z,70.75
2019-02-02T07:04:20.949Z,69.71
2019-02-02T07:06:47.525Z,69.61
2019-02-02T07:09:14.000Z,69.48
2019-02-02T07:11:40.305Z,69.42
2019-02-02T07:14:07.038Z,69.52
2019-02-02T07:16:33.624Z,69.01
2019-02-02T07:18:59.930Z,68.64
2019-02-02T07:21:26.265Z,68.68
2019-02-02T07:23:52.843Z,69.67
2019-02-02T07:26:19.389Z,69.62
2019-02-02T07:28:46.003Z,69.06
2019-02-02T07:31:12.562Z,68.94
2019-02-02T07:33:39.155Z,69.24
2019-02-02T07:36:05.502Z,68.63
2019-02-02T07:38:31.843Z,68.65
2019-02-02T07:40:58.209Z,69.36
2019-02-02T07:43:24.871Z,69.41
2019-02-02T07:45:51.269Z,69.04
2019-02-02T07:48:17.874Z,68.90
2019-02-02T07:50:44.623Z,68.57
2019-02-02T07:53:10.962Z,67.42
2019-02-02T07:55:37.623Z,67.25
2019-02-02T07:58:04.050Z,67.45
2019-02-02T08:00:40.695Z,67.30
2019-02-02T08:03:05.623Z,66.53
2019-02-02T08:05:32.014Z,66.43
2019-02-02T08:07:59.383Z,67.17
2019-02-02T08:10:25.720Z,67.17
2019-02-02T08:12:52.277Z,67.18
2019-02-02T08:15:25.468Z,67.34
2019-02-02T08:17:51.756Z,67.09
2019-02-02T08:20:18.492Z,66.59
2019-02-02T08:22:44.975Z,66.12
2019-02-02T08:25:14.253Z,65.66
2019-02-02T08:27:40.827Z,66.02
2019-02-02T08:30:17.647Z,66.33
2019-02-02T08:32:45.527Z,65.99
2019-02-02T08:35:12.528Z,65.73
2019-02-02T08:37:40.555Z,65.92
2019-02-02T08:40:11.383Z,65.88
2019-02-02T08:42:38.068Z,65.02
2019-02-02T08:45:07.291Z,64.85
2019-02-02T08:47:33.595Z,64.82
2019-02-02T08:49:59.933Z,64.72
2019-02-02T08:52:26.553Z,64.84
2019-02-02T08:54:52.927Z,64.77
2019-02-02T08:57:19.373Z,64.36
2019-02-02T08:59:45.999Z,64.55
2019-02-02T09:02:12.753Z,64.67
2019-02-02T09:04:39.116Z,65.06
2019-02-02T09:07:05.823Z,65.08
2019-02-02T09:09:33.143Z,64.54
2019-02-02T09:11:59.730Z,64.65
2019-02-02T09:14:26.047Z,63.80
2019-02-02T09:16:52.389Z,63.77
2019-02-02T09:19:18.682Z,63.81
2019-02-02T09:21:45.047Z,63.59
2019-02-02T09:24:11.633Z,63.77
2019-02-02T09:26:38.214Z,64.02
2019-02-02T09:29:04.790Z,64.51
2019-02-02T09:31:31.131Z,64.66
2019-02-02T09:33:57.425Z,64.22
2019-02-02T09:36:24.021Z,63.60
2019-02-02T09:38:50.598Z,63.55
2019-02-02T09:41:16.927Z,63.86
2019-02-02T09:43:43.241Z,64.19
2019-02-02T09:46:09.560Z,64.54
2019-02-02T09:48:35.881Z,64.53
2019-02-02T09:51:02.210Z,64.19
2019-02-02T09:53:28.565Z,63.48
2019-02-02T09:55:55.130Z,63.31
2019-02-02T09:58:21.693Z,63.24
2019-02-02T10:00:48.265Z,63.68
2019-02-02T10:03:14.836Z,63.94
2019-02-02T10:05:41.651Z,64.07
2019-02-02T10:08:08.109Z,63.82
2019-02-02T10:10:34.817Z,63.74
2019-02-02T10:13:01.366Z,63.78
2019-02-02T10:15:28.123Z,63.05
2019-02-02T10:17:55.025Z,63.61
2019-02-02T10:20:26.710Z,63.52
2019-02-02T10:22:54.501Z,63.61
2019-02-02T10:25:26.495Z,63.40
2019-02-02T10:27:52.945Z,63.92
2019-02-02T10:30:37.277Z,64.00
2019-02-02T10:33:04.586Z,64.32
2019-02-02T10:35:31.180Z,64.53
2019-02-02T10:37:57.491Z,64.15
2019-02-02T10:40:24.287Z,65.11
2019-02-02T10:42:50.633Z,65.25
2019-02-02T10:45:17.435Z,64.95
2019-02-02T10:47:44.545Z,65.30
2019-02-02T10:50:20.574Z,65.60
2019-02-02T10:52:47.278Z,65.10
2019-02-02T10:55:14.615Z,64.49
2019-02-02T10:57:42.510Z,65.41
2019-02-02T11:00:18.631Z,65.65
2019-02-02T11:02:45.985Z,67.16
2019-02-02T11:05:13.426Z,68.79
2019-02-02T11:07:39.771Z,67.61
2019-02-02T11:10:11.513Z,67.89
2019-02-02T11:12:38.126Z,67.59
2019-02-02T11:15:10.589Z,66.24
2019-02-02T11:17:36.967Z,65.44
2019-02-02T11:20:08.970Z,65.93
2019-02-02T11:22:39.671Z,67.46
2019-02-02T11:25:11.390Z,67.17
2019-02-02T11:27:37.818Z,66.69
2019-02-02T11:30:11.777Z,66.78
2019-02-02T11:32:38.248Z,67.10
2019-02-02T11:35:09.372Z,67.53
2019-02-02T11:37:35.693Z,68.25
2019-02-02T11:40:07.103Z,68.11
2019-02-02T11:42:33.777Z,67.79
2019-02-02T11:45:00.112Z,67.30
2019-02-02T11:47:26.634Z,67.20
2019-02-02T11:49:53.223Z,67.03
2019-02-02T11:52:19.542Z,67.18
2019-02-02T11:54:45.884Z,67.90
2019-02-02T11:57:12.239Z,68.00
2019-02-02T11:59:38.583Z,67.84
2019-02-02T12:02:14.236Z,67.09
2019-02-02T12:04:33.124Z,67.12
2019-02-02T12:06:59.450Z,67.62
2019-02-02T12:09:25.746Z,67.61
2019-02-02T12:11:52.334Z,67.47
2019-02-02T12:14:18.935Z,67.33
2019-02-02T12:16:45.495Z,66.67
2019-02-02T12:19:12.060Z,67.71
2019-02-02T12:21:39.376Z,67.39
2019-02-02T12:24:13.270Z,68.79
2019-02-02T12:26:34.175Z,68.75
2019-02-02T12:29:00.799Z,68.30
2019-02-02T12:31:27.439Z,67.53
2019-02-02T12:33:54.081Z,68.19
2019-02-02T12:36:20.385Z,67.85
2019-02-02T12:38:46.958Z,67.07
2019-02-02T12:41:13.275Z,67.67
2019-02-02T12:43:39.916Z,67.88
2019-02-02T12:46:06.825Z,67.55
2019-02-02T12:48:33.375Z,67.36
2019-02-02T12:50:59.718Z,66.74
2019-02-02T12:53:26.049Z,66.28
2019-02-02T12:55:52.617Z,65.20
2019-02-02T12:58:18.921Z,64.74
2019-02-02T13:00:45.734Z,65.40
2019-02-02T13:03:12.412Z,65.71
2019-02-02T13:05:39.225Z,66.23
2019-02-02T13:08:05.864Z,67.17
2019-02-02T13:10:32.175Z,68.83
2019-02-02T13:12:58.505Z,69.34
2019-02-02T13:15:25.182Z,69.43
2019-02-02T13:17:51.896Z,69.23
2019-02-02T13:20:18.631Z,68.44
2019-02-02T13:22:45.048Z,68.24
2019-02-02T13:25:20.338Z,68.53
2019-02-02T13:27:46.622Z,67.93
2019-02-02T13:30:17.761Z,67.67
2019-02-02T13:32:49.749Z,67.68
2019-02-02T13:35:15.011Z,67.66
2019-02-02T13:37:41.269Z,66.99
2019-02-02T13:40:13.127Z,66.37
2019-02-02T13:42:39.707Z,65.56
2019-02-02T13:45:08.282Z,65.17
2019-02-02T13:47:34.862Z,64.64
2019-02-02T13:50:01.468Z,64.84
2019-02-02T13:52:28.132Z,64.72
2019-02-02T13:54:54.547Z,64.37
2019-02-02T13:57:20.875Z,63.62
2019-02-02T13:59:47.223Z,64.15
2019-02-02T14:02:13.516Z,64.21
2019-02-02T14:04:39.868Z,64.46
2019-02-02T14:07:17.455Z,63.99
2019-02-02T14:09:34.421Z,63.89
2019-02-02T14:12:00.731Z,63.49
2019-02-02T14:14:27.392Z,62.98
2019-02-02T14:16:53.669Z,62.66
2019-02-02T14:19:20.001Z,62.73
2019-02-02T14:21:46.347Z,63.96
2019-02-02T14:24:12.913Z,63.79
2019-02-02T14:26:39.303Z,63.97
2019-02-02T14:29:05.726Z,64.90
2019-02-02T14:31:32.063Z,65.55
2019-02-02T14:33:58.375Z,65.16
2019-02-02T14:36:24.707Z,65.40
2019-02-02T14:38:51.055Z,65.71
2019-02-02T14:41:17.695Z,65.86
2019-02-02T14:43:44.538Z,66.58
2019-02-02T14:46:11.221Z,67.24
2019-02-02T14:48:37.956Z,68.01
2019-02-02T14:51:04.434Z,67.71
2019-02-02T14:53:31.010Z,68.03
2019-02-02T14:55:57.347Z,68.52
2019-02-02T14:58:23.662Z,68.60
2019-02-02T15:00:49.979Z,68.78
2019-02-02T15:03:25.648Z,68.45
2019-02-02T15:05:44.506Z,68.26
2019-02-02T15:08:11.102Z,68.19
2019-02-02T15:10:37.653Z,68.15
2019-02-02T15:13:04.345Z,68.27
2019-02-02T15:15:30.974Z,69.65
2019-02-02T15:17:57.534Z,70.23
2019-02-02T15:20:32.826Z,69.36
2019-02-02T15:23:00.141Z,68.42
2019-02-02T15:25:26.952Z,68.87
2019-02-02T15:27:53.257Z,69.03
2019-02-02T15:30:24.935Z,68.98
2019-02-02T15:32:51.336Z,68.09
2019-02-02T15:35:17.753Z,67.71
2019-02-02T15:37:44.072Z,68.13
2019-02-02T15:40:15.166Z,68.36
2019-02-02T15:42:42.448Z,68.78
2019-02-02T15:45:16.512Z,68.75
2019-02-02T15:47:43.216Z,68.62
2019-02-02T15:50:14.335Z,68.68
2019-02-02T15:52:41.423Z,68.81
2019-02-02T15:55:20.321Z,69.28
2019-02-02T15:57:49.551Z,69.49
2019-02-02T16:00:21.238Z,70.69
2019-02-02T16:02:47.706Z,70.76
2019-02-02T16:05:17.324Z,69.89
2019-02-02T16:07:44.073Z,70.02
2019-02-02T16:10:19.540Z,69.54
2019-02-02T16:12:46.393Z,69.97
2019-02-02T16:15:13.028Z,70.96
2019-02-02T16:17:39.364Z,71.35
2019-02-02T16:20:18.318Z,71.02
2019-02-02T16:22:44.666Z,70.07
2019-02-02T16:25:15.304Z,69.34
2019-02-02T16:27:42.049Z,70.04
2019-02-02T16:30:21.956Z,70.10
2019-02-02T16:32:48.269Z,69.75
2019-02-02T16:35:14.617Z,69.46
2019-02-02T16:37:42.080Z,68.46
2019-02-02T16:40:13.803Z,68.21
2019-02-02T16:42:40.456Z,68.97
2019-02-02T16:45:17.916Z,68.82
2019-02-02T16:47:44.579Z,68.81
2019-02-02T16:50:16.561Z,69.29
2019-02-02T16:52:43.891Z,69.45
2019-02-02T16:55:13.830Z,68.52
2019-02-02T16:57:40.261Z,68.79
2019-02-02T17:00:12.456Z,68.81
2019-02-02T17:02:39.577Z,68.25
2019-02-02T17:05:09.298Z,67.71
2019-02-02T17:07:36.015Z,68.06
2019-02-02T17:10:15.164Z,67.73
2019-02-02T17:12:41.790Z,68.29
2019-02-02T17:15:10.132Z,67.37
2019-02-02T17:17:36.782Z,68.02
2019-02-02T17:20:22.813Z,68.83
2019-02-02T17:22:49.454Z,68.03
2019-02-02T17:25:18.064Z,67.43
2019-02-02T17:27:44.490Z,67.32
2019-02-02T17:30:18.592Z,67.96
2019-02-02T17:32:46.025Z,67.83
2019-02-02T17:35:14.905Z,68.98
2019-02-02T17:37:43.170Z,68.81
2019-02-02T17:40:20.942Z,69.77
2019-02-02T17:42:49.859Z,69.71
2019-02-02T17:45:18.939Z,69.95
2019-02-02T17:47:45.423Z,70.69
2019-02-02T17:50:21.696Z,70.17
2019-02-02T17:52:48.117Z,70.01
2019-02-02T17:55:14.742Z,69.79
2019-02-02T17:57:41.415Z,69.93
2019-02-02T18:00:23.745Z,70.61
2019-02-02T18:02:50.945Z,70.22
2019-02-02T18:05:17.715Z,69.98
2019-02-02T18:07:44.347Z,69.63
2019-02-02T18:10:14.806Z,69.78
2019-02-02T18:12:41.967Z,69.69
2019-02-02T18:15:12.018Z,69.16
2019-02-02T18:17:38.337Z,69.26
2019-02-02T18:20:10.606Z,69.32
2019-02-02T18:22:38.796Z,69.38
2019-02-02T18:25:15.248Z,69.01
2019-02-02T18:27:39.940Z,69.31
2019-02-02T18:30:20.895Z,69.70
2019-02-02T18:32:49.463Z,69.53
2019-02-02T18:35:16.277Z,69.82
2019-02-02T18:37:42.979Z,70.28
2019-02-02T18:40:18.848Z,70.73
2019-02-02T18:42:45.251Z,71.72
2019-02-02T18:45:17.418Z,71.96
2019-02-02T18:47:45.185Z,72.24
2019-02-02T18:50:16.280Z,72.04
2019-02-02T18:52:44.074Z,72.63
2019-02-02T18:55:25.731Z,73.36
2019-02-02T18:57:52.767Z,73.38
2019-02-02T19:00:20.195Z,73.66
2019-02-02T19:02:47.255Z,73.34
2019-02-02T19:05:17.334Z,73.19
2019-02-02T19:07:43.780Z,72.74
2019-02-02T19:10:19.794Z,72.48
2019-02-02T19:12:46.562Z,71.37
2019-02-02T19:15:13.028Z,70.60
2019-02-02T19:17:39.740Z,70.95
2019-02-02T19:20:13.585Z,70.86
2019-02-02T19:22:40.372Z,71.19
2019-02-02T19:25:09.143Z,71.19
2019-02-02T19:27:35.488Z,71.26
2019-02-02T19:30:05.735Z,70.95
2019-02-02T19:32:32.278Z,70.77
2019-02-02T19:34:58.834Z,70.70
2019-02-02T19:37:25.156Z,70.79
2019-02-02T19:39:51.502Z,71.27
2019-02-02T19:42:18.152Z,71.22
2019-02-02T19:44:44.533Z,70.78
2019-02-02T19:47:16.256Z,71.09
2019-02-02T19:49:39.129Z,71.12
2019-02-02T19:52:05.422Z,71.65
2019-02-02T19:54:32.841Z,72.89
2019-02-02T19:56:59.428Z,73.01
2019-02-02T19:59:25.809Z,72.58
2019-02-02T20:01:52.145Z,71.63
2019-02-02T20:04:18.657Z,71.77
2019-02-02T20:06:46.491Z,71.79
2019-02-02T20:09:13.323Z,71.57
2019-02-02T20:11:39.934Z,71.58
2019-02-02T20:14:06.287Z,71.16
2019-02-02T20:16:32.889Z,71.59
2019-02-02T20:18:59.210Z,71.82
2019-02-02T20:21:25.546Z,71.52
2019-02-02T20:23:51.957Z,70.61
2019-02-02T20:26:18.553Z,69.91
2019-02-02T20:28:46.760Z,70.25
2019-02-02T20:31:13.336Z,69.95
2019-02-02T20:33:39.875Z,70.59
2019-02-02T20:36:08.213Z,71.68
2019-02-02T20:38:34.625Z,72.53
2019-02-02T20:41:01.206Z,71.49
2019-02-02T20:43:27.867Z,71.03
2019-02-02T20:45:54.208Z,70.97
2019-02-02T20:48:20.870Z,71.01
2019-02-02T20:50:47.471Z,70.36
2019-02-02T20:53:14.468Z,70.29
2019-02-02T20:55:43.278Z,70.31
2019-02-02T20:58:11.999Z,70.46
2019-02-02T21:00:38.811Z,69.57
2019-02-02T21:03:05.666Z,68.73
2019-02-02T21:05:32.346Z,68.87
2019-02-02T21:07:58.735Z,68.75
2019-02-02T21:10:25.391Z,69.15
2019-02-02T21:12:51.881Z,69.10
2019-02-02T21:15:18.301Z,69.60
2019-02-02T21:17:45.262Z,70.60
2019-02-02T21:20:15.377Z,70.44
2019-02-02T21:22:42.182Z,70.44
2019-02-02T21:25:10.401Z,70.74
2019-02-02T21:27:36.931Z,71.77
2019-02-02T21:30:09.163Z,70.82
2019-02-02T21:32:35.660Z,70.76
2019-02-02T21:35:02.606Z,71.23
2019-02-02T21:37:30.321Z,70.73
2019-02-02T21:39:56.695Z,71.05
2019-02-02T21:42:23.354Z,72.37
2019-02-02T21:44:49.948Z,73.05
2019-02-02T21:47:16.643Z,72.80
2019-02-02T21:49:42.977Z,72.89
2019-02-02T21:52:09.714Z,73.38
2019-02-02T21:54:36.609Z,72.90
2019-02-02T21:57:03.210Z,72.75
2019-02-02T21:59:29.665Z,71.99
2019-02-02T22:01:57.040Z,72.57
2019-02-02T22:04:23.703Z,72.39
2019-02-02T22:06:50.009Z,71.72
2019-02-02T22:09:16.340Z,71.20
2019-02-02T22:11:44.619Z,71.41
2019-02-02T22:14:11.441Z,70.75
2019-02-02T22:16:37.779Z,69.91
2019-02-02T22:19:04.329Z,70.24
2019-02-02T22:21:31.039Z,70.60
2019-02-02T22:23:57.613Z,71.50
2019-02-02T22:26:24.208Z,71.83
2019-02-02T22:28:51.134Z,71.17
2019-02-02T22:31:17.721Z,71.58
2019-02-02T22:33:46.210Z,72.72
2019-02-02T22:36:12.794Z,73.51
2019-02-02T22:38:39.376Z,72.73
2019-02-02T22:41:07.049Z,72.82
2019-02-02T22:43:33.762Z,73.53
2019-02-02T22:46:00.079Z,73.70
2019-02-02T22:48:26.668Z,74.17
2019-02-02T22:50:53.243Z,74.06
2019-02-02T22:53:19.877Z,73.40
2019-02-02T22:55:46.524Z,73.27
2019-02-02T22:58:12.820Z,72.27
2019-02-02T23:00:55.891Z,72.17
2019-02-02T23:03:55.336Z,72.33
2019-02-02T23:06:45.363Z,72.02
2019-02-02T23:10:00.839Z,71.01
2019-02-02T23:12:56.403Z,71.98
2019-02-02T23:15:34.720Z,72.18
2019-02-02T23:18:02.255Z,73.70
2019-02-02T23:20:28.697Z,73.94
2019-02-02T23:22:55.032Z,73.18
2019-02-02T23:25:21.597Z,72.44
2019-02-02T23:27:47.956Z,72.68
2019-02-02T23:30:15.858Z,72.76
2019-02-02T23:32:42.196Z,73.41
2019-02-02T23:35:08.817Z,73.20
2019-02-02T23:37:35.499Z,73.87
2019-02-02T23:40:02.251Z,74.29
2019-02-02T23:42:28.828Z,74.08
2019-02-02T23:44:55.146Z,73.00
2019-02-02T23:47:22.459Z,73.43
2019-02-02T23:49:49.010Z,73.72
2019-02-02T23:52:15.738Z,74.90
2019-02-02T23:54:42.049Z,74.31
2019-02-02T23:57:08.637Z,74.05
2019-02-02T23:59:35.936Z,75.10
